sensor_id;sensor_type;location;lat;lon;timestamp;P1;durP1;ratioP1;P2;durP2;ratioP2
52015;SDS011;38032;53.326;6.472;2023-12-07T00:01:49;13.07;;;8.73;;
52015;SDS011;38032;53.326;6.472;2023-12-07T00:04:15;11.43;;;8.27;;
52015;SDS011;38032;53.326;6.472;2023-12-07T00:06:41;11.07;;;8.05;;
52015;SDS011;38032;53.326;6.472;2023-12-07T00:09:07;10.85;;;8.40;;
52015;SDS011;38032;53.326;6.472;2023-12-07T00:11:32;14.00;;;8.63;;
52015;SDS011;38032;53.326;6.472;2023-12-07T00:13:58;11.52;;;8.20;;
52015;SDS011;38032;53.326;6.472;2023-12-07T00:16:24;11.05;;;8.20;;
52015;SDS011;38032;53.326;6.472;2023-12-07T00:18:50;10.18;;;7.55;;
52015;SDS011;38032;53.326;6.472;2023-12-07T00:21:15;12.25;;;8.38;;
52015;SDS011;38032;53.326;6.472;2023-12-07T00:23:41;14.88;;;8.80;;
52015;SDS011;38032;53.326;6.472;2023-12-07T00:26:07;13.38;;;8.60;;
52015;SDS011;38032;53.326;6.472;2023-12-07T00:28:33;11.70;;;8.98;;
52015;SDS011;38032;53.326;6.472;2023-12-07T00:30:58;14.18;;;8.70;;
52015;SDS011;38032;53.326;6.472;2023-12-07T00:33:24;11.55;;;8.05;;
52015;SDS011;38032;53.326;6.472;2023-12-07T00:35:50;12.27;;;8.23;;
52015;SDS011;38032;53.326;6.472;2023-12-07T00:38:16;11.43;;;8.57;;
52015;SDS011;38032;53.326;6.472;2023-12-07T00:40:41;10.73;;;7.53;;
52015;SDS011;38032;53.326;6.472;2023-12-07T00:43:07;13.48;;;8.45;;
52015;SDS011;38032;53.326;6.472;2023-12-07T00:45:33;11.25;;;8.27;;
52015;SDS011;38032;53.326;6.472;2023-12-07T00:47:59;11.73;;;8.43;;
52015;SDS011;38032;53.326;6.472;2023-12-07T00:50:25;11.77;;;8.77;;
52015;SDS011;38032;53.326;6.472;2023-12-07T00:52:51;11.75;;;8.63;;
52015;SDS011;38032;53.326;6.472;2023-12-07T00:55:16;14.15;;;8.50;;
52015;SDS011;38032;53.326;6.472;2023-12-07T00:57:42;12.35;;;8.73;;
52015;SDS011;38032;53.326;6.472;2023-12-07T01:00:08;11.93;;;8.60;;
52015;SDS011;38032;53.326;6.472;2023-12-07T01:02:35;10.65;;;7.50;;
52015;SDS011;38032;53.326;6.472;2023-12-07T01:05:01;11.38;;;8.13;;
52015;SDS011;38032;53.326;6.472;2023-12-07T01:07:27;10.52;;;8.02;;
52015;SDS011;38032;53.326;6.472;2023-12-07T01:09:53;11.43;;;8.05;;
52015;SDS011;38032;53.326;6.472;2023-12-07T01:12:18;11.27;;;7.50;;
52015;SDS011;38032;53.326;6.472;2023-12-07T01:14:45;10.93;;;7.75;;
52015;SDS011;38032;53.326;6.472;2023-12-07T01:17:11;13.23;;;7.85;;
52015;SDS011;38032;53.326;6.472;2023-12-07T01:19:36;10.60;;;7.93;;
52015;SDS011;38032;53.326;6.472;2023-12-07T01:22:02;11.55;;;7.95;;
52015;SDS011;38032;53.326;6.472;2023-12-07T01:24:28;10.45;;;7.55;;
52015;SDS011;38032;53.326;6.472;2023-12-07T01:26:54;12.15;;;7.82;;
52015;SDS011;38032;53.326;6.472;2023-12-07T01:29:20;14.38;;;8.60;;
52015;SDS011;38032;53.326;6.472;2023-12-07T01:31:46;12.93;;;8.32;;
52015;SDS011;38032;53.326;6.472;2023-12-07T01:34:12;12.65;;;8.18;;
52015;SDS011;38032;53.326;6.472;2023-12-07T01:36:37;13.15;;;8.38;;
52015;SDS011;38032;53.326;6.472;2023-12-07T01:39:03;11.82;;;7.97;;
52015;SDS011;38032;53.326;6.472;2023-12-07T01:41:29;12.07;;;8.10;;
52015;SDS011;38032;53.326;6.472;2023-12-07T01:43:56;15.60;;;7.85;;
52015;SDS011;38032;53.326;6.472;2023-12-07T01:46:22;11.48;;;8.68;;
52015;SDS011;38032;53.326;6.472;2023-12-07T01:48:48;10.90;;;7.38;;
52015;SDS011;38032;53.326;6.472;2023-12-07T01:51:14;10.75;;;8.07;;
52015;SDS011;38032;53.326;6.472;2023-12-07T01:53:41;13.18;;;8.02;;
52015;SDS011;38032;53.326;6.472;2023-12-07T01:56:08;10.95;;;8.00;;
52015;SDS011;38032;53.326;6.472;2023-12-07T01:58:35;10.75;;;8.00;;
52015;SDS011;38032;53.326;6.472;2023-12-07T02:01:02;11.10;;;8.10;;
52015;SDS011;38032;53.326;6.472;2023-12-07T02:03:29;10.40;;;7.53;;
52015;SDS011;38032;53.326;6.472;2023-12-07T02:05:56;11.00;;;8.38;;
52015;SDS011;38032;53.326;6.472;2023-12-07T02:08:23;11.52;;;8.30;;
52015;SDS011;38032;53.326;6.472;2023-12-07T02:10:49;10.73;;;7.90;;
52015;SDS011;38032;53.326;6.472;2023-12-07T02:13:18;12.73;;;8.20;;
52015;SDS011;38032;53.326;6.472;2023-12-07T02:15:44;11.32;;;7.55;;
52015;SDS011;38032;53.326;6.472;2023-12-07T02:18:16;11.63;;;7.50;;
52015;SDS011;38032;53.326;6.472;2023-12-07T02:20:53;11.60;;;7.95;;
52015;SDS011;38032;53.326;6.472;2023-12-07T02:23:26;12.38;;;8.38;;
52015;SDS011;38032;53.326;6.472;2023-12-07T02:25:54;12.05;;;8.23;;
52015;SDS011;38032;53.326;6.472;2023-12-07T02:28:22;11.30;;;7.53;;
52015;SDS011;38032;53.326;6.472;2023-12-07T02:30:48;13.57;;;8.52;;
52015;SDS011;38032;53.326;6.472;2023-12-07T02:33:14;11.93;;;7.82;;
52015;SDS011;38032;53.326;6.472;2023-12-07T02:35:40;11.68;;;8.20;;
52015;SDS011;38032;53.326;6.472;2023-12-07T02:38:07;10.68;;;7.90;;
52015;SDS011;38032;53.326;6.472;2023-12-07T02:40:34;10.82;;;7.75;;
52015;SDS011;38032;53.326;6.472;2023-12-07T02:43:00;12.70;;;8.60;;
52015;SDS011;38032;53.326;6.472;2023-12-07T02:45:28;12.02;;;8.13;;
52015;SDS011;38032;53.326;6.472;2023-12-07T02:47:54;13.63;;;8.02;;
52015;SDS011;38032;53.326;6.472;2023-12-07T02:50:21;12.32;;;8.10;;
52015;SDS011;38032;53.326;6.472;2023-12-07T02:52:47;12.27;;;8.18;;
52015;SDS011;38032;53.326;6.472;2023-12-07T02:55:13;12.63;;;8.50;;
52015;SDS011;38032;53.326;6.472;2023-12-07T02:57:39;13.32;;;8.52;;
52015;SDS011;38032;53.326;6.472;2023-12-07T03:00:05;11.50;;;8.32;;
52015;SDS011;38032;53.326;6.472;2023-12-07T03:02:33;11.73;;;8.10;;
52015;SDS011;38032;53.326;6.472;2023-12-07T03:05:00;13.07;;;7.72;;
52015;SDS011;38032;53.326;6.472;2023-12-07T03:07:26;11.77;;;7.95;;
52015;SDS011;38032;53.326;6.472;2023-12-07T03:09:52;13.05;;;7.97;;
52015;SDS011;38032;53.326;6.472;2023-12-07T03:12:17;10.77;;;8.00;;
52015;SDS011;38032;53.326;6.472;2023-12-07T03:14:43;11.73;;;8.20;;
52015;SDS011;38032;53.326;6.472;2023-12-07T03:17:09;12.32;;;8.18;;
52015;SDS011;38032;53.326;6.472;2023-12-07T03:19:38;12.90;;;8.27;;
52015;SDS011;38032;53.326;6.472;2023-12-07T03:22:04;12.10;;;8.23;;
52015;SDS011;38032;53.326;6.472;2023-12-07T03:24:32;13.98;;;8.57;;
52015;SDS011;38032;53.326;6.472;2023-12-07T03:26:59;11.15;;;7.63;;
52015;SDS011;38032;53.326;6.472;2023-12-07T03:29:25;11.10;;;7.53;;
52015;SDS011;38032;53.326;6.472;2023-12-07T03:31:51;12.60;;;8.27;;
52015;SDS011;38032;53.326;6.472;2023-12-07T03:34:17;11.77;;;8.35;;
52015;SDS011;38032;53.326;6.472;2023-12-07T03:36:45;12.75;;;8.43;;
52015;SDS011;38032;53.326;6.472;2023-12-07T03:39:11;11.43;;;8.10;;
52015;SDS011;38032;53.326;6.472;2023-12-07T03:41:38;10.98;;;7.97;;
52015;SDS011;38032;53.326;6.472;2023-12-07T03:44:04;12.77;;;8.25;;
52015;SDS011;38032;53.326;6.472;2023-12-07T03:46:30;11.38;;;7.65;;
52015;SDS011;38032;53.326;6.472;2023-12-07T03:48:55;10.85;;;8.10;;
52015;SDS011;38032;53.326;6.472;2023-12-07T03:51:21;10.27;;;7.18;;
52015;SDS011;38032;53.326;6.472;2023-12-07T03:53:47;12.30;;;8.15;;
52015;SDS011;38032;53.326;6.472;2023-12-07T03:56:28;10.73;;;7.50;;
52015;SDS011;38032;53.326;6.472;2023-12-07T03:58:55;12.20;;;7.63;;
52015;SDS011;38032;53.326;6.472;2023-12-07T04:01:22;10.32;;;7.18;;
52015;SDS011;38032;53.326;6.472;2023-12-07T04:03:49;12.57;;;7.38;;
52015;SDS011;38032;53.326;6.472;2023-12-07T04:06:14;12.77;;;7.78;;
52015;SDS011;38032;53.326;6.472;2023-12-07T04:08:41;9.98;;;7.40;;
52015;SDS011;38032;53.326;6.472;2023-12-07T04:11:07;10.75;;;7.47;;
52015;SDS011;38032;53.326;6.472;2023-12-07T04:13:33;10.43;;;7.43;;
52015;SDS011;38032;53.326;6.472;2023-12-07T04:15:59;11.27;;;7.10;;
52015;SDS011;38032;53.326;6.472;2023-12-07T04:18:25;11.98;;;7.65;;
52015;SDS011;38032;53.326;6.472;2023-12-07T04:20:51;10.20;;;7.30;;
52015;SDS011;38032;53.326;6.472;2023-12-07T04:23:17;12.27;;;7.40;;
52015;SDS011;38032;53.326;6.472;2023-12-07T04:25:43;9.60;;;6.93;;
52015;SDS011;38032;53.326;6.472;2023-12-07T04:28:08;10.55;;;7.40;;
52015;SDS011;38032;53.326;6.472;2023-12-07T04:30:34;12.80;;;8.23;;
52015;SDS011;38032;53.326;6.472;2023-12-07T04:33:00;11.85;;;7.57;;
52015;SDS011;38032;53.326;6.472;2023-12-07T04:35:26;14.40;;;7.40;;
52015;SDS011;38032;53.326;6.472;2023-12-07T04:37:53;11.68;;;7.70;;
52015;SDS011;38032;53.326;6.472;2023-12-07T04:40:19;8.77;;;6.50;;
52015;SDS011;38032;53.326;6.472;2023-12-07T04:42:45;10.82;;;7.63;;
52015;SDS011;38032;53.326;6.472;2023-12-07T04:45:11;10.90;;;7.57;;
52015;SDS011;38032;53.326;6.472;2023-12-07T04:47:37;10.43;;;7.47;;
52015;SDS011;38032;53.326;6.472;2023-12-07T04:50:03;9.77;;;7.07;;
52015;SDS011;38032;53.326;6.472;2023-12-07T04:52:29;9.57;;;6.50;;
52015;SDS011;38032;53.326;6.472;2023-12-07T04:54:55;10.27;;;6.65;;
52015;SDS011;38032;53.326;6.472;2023-12-07T04:57:20;9.88;;;6.75;;
52015;SDS011;38032;53.326;6.472;2023-12-07T04:59:46;10.48;;;7.13;;
52015;SDS011;38032;53.326;6.472;2023-12-07T05:02:13;11.32;;;7.00;;
52015;SDS011;38032;53.326;6.472;2023-12-07T05:04:40;9.95;;;6.60;;
52015;SDS011;38032;53.326;6.472;2023-12-07T05:07:06;11.60;;;7.03;;
52015;SDS011;38032;53.326;6.472;2023-12-07T05:09:31;7.57;;;5.95;;
52015;SDS011;38032;53.326;6.472;2023-12-07T05:11:57;10.40;;;6.80;;
52015;SDS011;38032;53.326;6.472;2023-12-07T05:14:23;10.50;;;6.72;;
52015;SDS011;38032;53.326;6.472;2023-12-07T05:16:49;8.77;;;6.38;;
52015;SDS011;38032;53.326;6.472;2023-12-07T05:19:19;9.23;;;6.30;;
52015;SDS011;38032;53.326;6.472;2023-12-07T05:21:46;7.95;;;5.88;;
52015;SDS011;38032;53.326;6.472;2023-12-07T05:24:12;9.77;;;6.60;;
52015;SDS011;38032;53.326;6.472;2023-12-07T05:26:40;8.55;;;5.80;;
52015;SDS011;38032;53.326;6.472;2023-12-07T05:29:07;11.02;;;6.00;;
52015;SDS011;38032;53.326;6.472;2023-12-07T05:31:33;9.50;;;6.20;;
52015;SDS011;38032;53.326;6.472;2023-12-07T05:34:00;9.95;;;5.68;;
52015;SDS011;38032;53.326;6.472;2023-12-07T05:36:26;15.73;;;6.20;;
52015;SDS011;38032;53.326;6.472;2023-12-07T05:38:52;8.85;;;5.53;;
52015;SDS011;38032;53.326;6.472;2023-12-07T05:41:17;8.45;;;6.03;;
52015;SDS011;38032;53.326;6.472;2023-12-07T05:43:43;8.65;;;6.47;;
52015;SDS011;38032;53.326;6.472;2023-12-07T05:46:09;9.13;;;5.95;;
52015;SDS011;38032;53.326;6.472;2023-12-07T05:48:35;7.80;;;5.50;;
52015;SDS011;38032;53.326;6.472;2023-12-07T05:51:02;10.68;;;6.05;;
52015;SDS011;38032;53.326;6.472;2023-12-07T05:53:28;8.35;;;5.78;;
52015;SDS011;38032;53.326;6.472;2023-12-07T05:55:54;8.73;;;6.05;;
52015;SDS011;38032;53.326;6.472;2023-12-07T05:58:20;8.75;;;6.28;;
52015;SDS011;38032;53.326;6.472;2023-12-07T06:00:46;9.55;;;6.45;;
52015;SDS011;38032;53.326;6.472;2023-12-07T06:03:12;8.30;;;5.90;;
52015;SDS011;38032;53.326;6.472;2023-12-07T06:05:38;9.15;;;6.45;;
52015;SDS011;38032;53.326;6.472;2023-12-07T06:08:05;8.27;;;6.25;;
52015;SDS011;38032;53.326;6.472;2023-12-07T06:10:31;8.00;;;5.95;;
52015;SDS011;38032;53.326;6.472;2023-12-07T06:12:57;8.25;;;5.78;;
52015;SDS011;38032;53.326;6.472;2023-12-07T06:15:26;9.73;;;6.40;;
52015;SDS011;38032;53.326;6.472;2023-12-07T06:17:52;9.30;;;6.35;;
52015;SDS011;38032;53.326;6.472;2023-12-07T06:20:19;8.85;;;6.50;;
52015;SDS011;38032;53.326;6.472;2023-12-07T06:22:45;9.23;;;6.45;;
52015;SDS011;38032;53.326;6.472;2023-12-07T06:25:11;8.23;;;6.25;;
52015;SDS011;38032;53.326;6.472;2023-12-07T06:27:38;11.43;;;7.07;;
52015;SDS011;38032;53.326;6.472;2023-12-07T06:30:04;10.23;;;6.35;;
52015;SDS011;38032;53.326;6.472;2023-12-07T06:32:31;9.88;;;6.63;;
52015;SDS011;38032;53.326;6.472;2023-12-07T06:34:57;10.27;;;7.13;;
52015;SDS011;38032;53.326;6.472;2023-12-07T06:37:23;10.90;;;7.50;;
52015;SDS011;38032;53.326;6.472;2023-12-07T06:39:49;10.45;;;6.72;;
52015;SDS011;38032;53.326;6.472;2023-12-07T06:42:15;10.88;;;7.40;;
52015;SDS011;38032;53.326;6.472;2023-12-07T06:44:47;12.60;;;7.93;;
52015;SDS011;38032;53.326;6.472;2023-12-07T06:47:15;12.65;;;7.30;;
52015;SDS011;38032;53.326;6.472;2023-12-07T06:49:41;10.15;;;7.10;;
52015;SDS011;38032;53.326;6.472;2023-12-07T06:52:07;10.05;;;7.50;;
52015;SDS011;38032;53.326;6.472;2023-12-07T06:54:33;12.00;;;7.68;;
52015;SDS011;38032;53.326;6.472;2023-12-07T06:56:59;13.50;;;7.57;;
52015;SDS011;38032;53.326;6.472;2023-12-07T06:59:25;10.98;;;7.50;;
52015;SDS011;38032;53.326;6.472;2023-12-07T07:01:51;12.32;;;8.00;;
52015;SDS011;38032;53.326;6.472;2023-12-07T07:04:16;11.23;;;7.57;;
52015;SDS011;38032;53.326;6.472;2023-12-07T07:06:42;15.20;;;8.45;;
52015;SDS011;38032;53.326;6.472;2023-12-07T07:09:09;10.60;;;7.78;;
52015;SDS011;38032;53.326;6.472;2023-12-07T07:11:35;11.48;;;8.15;;
52015;SDS011;38032;53.326;6.472;2023-12-07T07:14:02;11.10;;;7.97;;
52015;SDS011;38032;53.326;6.472;2023-12-07T07:16:28;10.52;;;8.05;;
52015;SDS011;38032;53.326;6.472;2023-12-07T07:18:53;11.27;;;8.32;;
52015;SDS011;38032;53.326;6.472;2023-12-07T07:21:19;12.75;;;8.63;;
52015;SDS011;38032;53.326;6.472;2023-12-07T07:23:45;13.55;;;8.75;;
52015;SDS011;38032;53.326;6.472;2023-12-07T07:26:11;13.48;;;8.15;;
52015;SDS011;38032;53.326;6.472;2023-12-07T07:28:42;13.40;;;8.65;;
52015;SDS011;38032;53.326;6.472;2023-12-07T07:31:08;12.77;;;8.50;;
52015;SDS011;38032;53.326;6.472;2023-12-07T07:33:34;13.35;;;9.38;;
52015;SDS011;38032;53.326;6.472;2023-12-07T07:36:00;13.65;;;9.00;;
52015;SDS011;38032;53.326;6.472;2023-12-07T07:38:26;13.02;;;8.70;;
52015;SDS011;38032;53.326;6.472;2023-12-07T07:40:51;12.02;;;8.98;;
52015;SDS011;38032;53.326;6.472;2023-12-07T07:43:17;12.80;;;8.65;;
52015;SDS011;38032;53.326;6.472;2023-12-07T07:45:43;12.88;;;8.98;;
52015;SDS011;38032;53.326;6.472;2023-12-07T07:48:11;13.85;;;8.77;;
52015;SDS011;38032;53.326;6.472;2023-12-07T07:50:37;12.45;;;8.60;;
52015;SDS011;38032;53.326;6.472;2023-12-07T07:53:03;12.35;;;8.05;;
52015;SDS011;38032;53.326;6.472;2023-12-07T07:55:29;12.55;;;8.32;;
52015;SDS011;38032;53.326;6.472;2023-12-07T07:57:56;12.00;;;8.48;;
52015;SDS011;38032;53.326;6.472;2023-12-07T08:00:21;11.98;;;8.57;;
52015;SDS011;38032;53.326;6.472;2023-12-07T08:02:51;13.02;;;9.10;;
52015;SDS011;38032;53.326;6.472;2023-12-07T08:05:17;13.23;;;9.30;;
52015;SDS011;38032;53.326;6.472;2023-12-07T08:07:43;15.40;;;9.32;;
52015;SDS011;38032;53.326;6.472;2023-12-07T08:10:09;14.60;;;9.25;;
52015;SDS011;38032;53.326;6.472;2023-12-07T08:12:36;12.90;;;9.00;;
52015;SDS011;38032;53.326;6.472;2023-12-07T08:15:04;13.15;;;9.25;;
52015;SDS011;38032;53.326;6.472;2023-12-07T08:17:30;13.65;;;8.82;;
52015;SDS011;38032;53.326;6.472;2023-12-07T08:19:56;13.68;;;8.35;;
52015;SDS011;38032;53.326;6.472;2023-12-07T08:22:24;13.10;;;8.77;;
52015;SDS011;38032;53.326;6.472;2023-12-07T08:24:50;14.25;;;9.30;;
52015;SDS011;38032;53.326;6.472;2023-12-07T08:27:15;14.80;;;8.27;;
52015;SDS011;38032;53.326;6.472;2023-12-07T08:29:41;13.15;;;8.82;;
52015;SDS011;38032;53.326;6.472;2023-12-07T08:32:07;13.38;;;9.05;;
52015;SDS011;38032;53.326;6.472;2023-12-07T08:34:33;12.73;;;9.15;;
52015;SDS011;38032;53.326;6.472;2023-12-07T08:36:59;13.90;;;8.80;;
52015;SDS011;38032;53.326;6.472;2023-12-07T08:39:24;13.82;;;9.38;;
52015;SDS011;38032;53.326;6.472;2023-12-07T08:41:51;12.82;;;8.52;;
52015;SDS011;38032;53.326;6.472;2023-12-07T08:44:17;14.95;;;9.15;;
52015;SDS011;38032;53.326;6.472;2023-12-07T08:46:43;12.75;;;9.05;;
52015;SDS011;38032;53.326;6.472;2023-12-07T08:49:10;12.50;;;8.75;;
52015;SDS011;38032;53.326;6.472;2023-12-07T08:51:36;12.63;;;9.05;;
52015;SDS011;38032;53.326;6.472;2023-12-07T08:54:02;13.27;;;8.85;;
52015;SDS011;38032;53.326;6.472;2023-12-07T08:56:27;14.90;;;9.57;;
52015;SDS011;38032;53.326;6.472;2023-12-07T08:58:53;12.38;;;8.60;;
52015;SDS011;38032;53.326;6.472;2023-12-07T09:01:19;13.63;;;8.70;;
52015;SDS011;38032;53.326;6.472;2023-12-07T09:03:45;13.82;;;9.20;;
52015;SDS011;38032;53.326;6.472;2023-12-07T09:06:11;13.40;;;8.98;;
52015;SDS011;38032;53.326;6.472;2023-12-07T09:08:36;14.60;;;8.75;;
52015;SDS011;38032;53.326;6.472;2023-12-07T09:11:03;12.25;;;8.55;;
52015;SDS011;38032;53.326;6.472;2023-12-07T09:13:29;13.82;;;8.90;;
52015;SDS011;38032;53.326;6.472;2023-12-07T09:15:55;14.18;;;8.80;;
52015;SDS011;38032;53.326;6.472;2023-12-07T09:18:21;13.55;;;8.85;;
52015;SDS011;38032;53.326;6.472;2023-12-07T09:20:46;13.95;;;8.80;;
52015;SDS011;38032;53.326;6.472;2023-12-07T09:23:12;12.18;;;8.90;;
52015;SDS011;38032;53.326;6.472;2023-12-07T09:25:40;11.65;;;8.15;;
52015;SDS011;38032;53.326;6.472;2023-12-07T09:28:06;12.82;;;8.88;;
52015;SDS011;38032;53.326;6.472;2023-12-07T09:30:33;12.45;;;8.85;;
52015;SDS011;38032;53.326;6.472;2023-12-07T09:32:59;13.10;;;8.73;;
52015;SDS011;38032;53.326;6.472;2023-12-07T09:35:27;12.43;;;9.43;;
52015;SDS011;38032;53.326;6.472;2023-12-07T09:37:53;12.35;;;8.00;;
52015;SDS011;38032;53.326;6.472;2023-12-07T09:40:21;12.15;;;9.00;;
52015;SDS011;38032;53.326;6.472;2023-12-07T09:42:48;13.40;;;9.63;;
52015;SDS011;38032;53.326;6.472;2023-12-07T09:45:15;13.00;;;9.45;;
52015;SDS011;38032;53.326;6.472;2023-12-07T09:47:43;13.30;;;9.13;;
52015;SDS011;38032;53.326;6.472;2023-12-07T09:50:15;13.45;;;9.13;;
52015;SDS011;38032;53.326;6.472;2023-12-07T09:52:43;12.15;;;8.57;;
52015;SDS011;38032;53.326;6.472;2023-12-07T09:55:08;12.75;;;8.95;;
52015;SDS011;38032;53.326;6.472;2023-12-07T09:57:36;13.77;;;9.43;;
52015;SDS011;38032;53.326;6.472;2023-12-07T10:00:02;14.93;;;9.82;;
52015;SDS011;38032;53.326;6.472;2023-12-07T10:02:30;14.38;;;10.40;;
52015;SDS011;38032;53.326;6.472;2023-12-07T10:05:04;16.20;;;10.50;;
52015;SDS011;38032;53.326;6.472;2023-12-07T10:07:32;19.15;;;12.57;;
52015;SDS011;38032;53.326;6.472;2023-12-07T10:10:01;19.00;;;12.15;;
52015;SDS011;38032;53.326;6.472;2023-12-07T10:12:28;18.30;;;12.30;;
52015;SDS011;38032;53.326;6.472;2023-12-07T10:14:55;20.55;;;13.68;;
52015;SDS011;38032;53.326;6.472;2023-12-07T10:17:21;17.98;;;12.63;;
52015;SDS011;38032;53.326;6.472;2023-12-07T10:19:52;17.90;;;12.70;;
52015;SDS011;38032;53.326;6.472;2023-12-07T10:22:34;17.80;;;11.90;;
52015;SDS011;38032;53.326;6.472;2023-12-07T10:25:00;18.70;;;12.82;;
52015;SDS011;38032;53.326;6.472;2023-12-07T10:27:26;18.42;;;12.45;;
52015;SDS011;38032;53.326;6.472;2023-12-07T10:29:53;20.70;;;12.80;;
52015;SDS011;38032;53.326;6.472;2023-12-07T10:32:21;20.30;;;13.10;;
52015;SDS011;38032;53.326;6.472;2023-12-07T10:34:47;17.40;;;11.93;;
52015;SDS011;38032;53.326;6.472;2023-12-07T10:37:13;18.25;;;12.55;;
52015;SDS011;38032;53.326;6.472;2023-12-07T10:39:38;20.48;;;13.82;;
52015;SDS011;38032;53.326;6.472;2023-12-07T10:42:04;17.00;;;11.98;;
52015;SDS011;38032;53.326;6.472;2023-12-07T10:44:35;16.73;;;12.43;;
52015;SDS011;38032;53.326;6.472;2023-12-07T10:47:07;19.88;;;13.38;;
52015;SDS011;38032;53.326;6.472;2023-12-07T10:49:35;18.80;;;12.07;;
52015;SDS011;38032;53.326;6.472;2023-12-07T10:52:06;17.85;;;11.93;;
52015;SDS011;38032;53.326;6.472;2023-12-07T10:54:39;17.75;;;12.75;;
52015;SDS011;38032;53.326;6.472;2023-12-07T10:57:05;17.65;;;12.40;;
52015;SDS011;38032;53.326;6.472;2023-12-07T10:59:32;15.45;;;10.48;;
52015;SDS011;38032;53.326;6.472;2023-12-07T11:02:02;19.00;;;13.57;;
52015;SDS011;38032;53.326;6.472;2023-12-07T11:04:28;19.02;;;12.95;;
52015;SDS011;38032;53.326;6.472;2023-12-07T11:06:56;18.60;;;12.88;;
52015;SDS011;38032;53.326;6.472;2023-12-07T11:09:30;15.27;;;12.77;;
52015;SDS011;38032;53.326;6.472;2023-12-07T11:12:04;18.17;;;13.05;;
52015;SDS011;38032;53.326;6.472;2023-12-07T11:14:36;18.05;;;12.20;;
52015;SDS011;38032;53.326;6.472;2023-12-07T11:17:04;19.98;;;12.95;;
52015;SDS011;38032;53.326;6.472;2023-12-07T11:22:02;17.00;;;12.55;;
52015;SDS011;38032;53.326;6.472;2023-12-07T11:24:29;16.15;;;10.55;;
52015;SDS011;38032;53.326;6.472;2023-12-07T11:26:55;15.05;;;10.63;;
52015;SDS011;38032;53.326;6.472;2023-12-07T11:29:23;16.30;;;11.85;;
52015;SDS011;38032;53.326;6.472;2023-12-07T11:31:50;14.32;;;10.23;;
52015;SDS011;38032;53.326;6.472;2023-12-07T11:34:33;16.80;;;11.75;;
52015;SDS011;38032;53.326;6.472;2023-12-07T11:37:01;18.75;;;12.18;;
52015;SDS011;38032;53.326;6.472;2023-12-07T11:39:29;17.05;;;10.43;;
52015;SDS011;38032;53.326;6.472;2023-12-07T11:42:07;14.45;;;9.18;;
52015;SDS011;38032;53.326;6.472;2023-12-07T11:44:41;15.02;;;10.48;;
52015;SDS011;38032;53.326;6.472;2023-12-07T11:47:09;13.95;;;10.18;;
52015;SDS011;38032;53.326;6.472;2023-12-07T11:49:41;13.88;;;9.98;;
52015;SDS011;38032;53.326;6.472;2023-12-07T11:52:16;15.60;;;10.30;;
52015;SDS011;38032;53.326;6.472;2023-12-07T11:54:45;14.52;;;10.70;;
52015;SDS011;38032;53.326;6.472;2023-12-07T11:57:12;12.88;;;9.55;;
52015;SDS011;38032;53.326;6.472;2023-12-07T11:59:39;18.55;;;11.55;;
52015;SDS011;38032;53.326;6.472;2023-12-07T12:02:06;16.55;;;10.85;;
52015;SDS011;38032;53.326;6.472;2023-12-07T12:04:32;17.70;;;11.32;;
52015;SDS011;38032;53.326;6.472;2023-12-07T12:06:57;16.65;;;10.68;;
52015;SDS011;38032;53.326;6.472;2023-12-07T12:09:24;16.10;;;10.77;;
52015;SDS011;38032;53.326;6.472;2023-12-07T12:11:50;17.45;;;11.30;;
52015;SDS011;38032;53.326;6.472;2023-12-07T12:14:16;17.30;;;11.23;;
52015;SDS011;38032;53.326;6.472;2023-12-07T12:16:44;16.20;;;11.40;;
52015;SDS011;38032;53.326;6.472;2023-12-07T12:19:11;17.88;;;12.50;;
52015;SDS011;38032;53.326;6.472;2023-12-07T12:21:40;19.65;;;13.02;;
52015;SDS011;38032;53.326;6.472;2023-12-07T12:24:06;18.95;;;12.65;;
52015;SDS011;38032;53.326;6.472;2023-12-07T12:26:33;16.58;;;12.15;;
52015;SDS011;38032;53.326;6.472;2023-12-07T12:29:01;16.70;;;12.15;;
52015;SDS011;38032;53.326;6.472;2023-12-07T12:31:27;17.70;;;12.65;;
52015;SDS011;38032;53.326;6.472;2023-12-07T12:33:54;21.83;;;13.23;;
52015;SDS011;38032;53.326;6.472;2023-12-07T12:36:19;21.77;;;14.75;;
52015;SDS011;38032;53.326;6.472;2023-12-07T12:38:49;24.60;;;14.57;;
52015;SDS011;38032;53.326;6.472;2023-12-07T12:41:19;19.60;;;14.32;;
52015;SDS011;38032;53.326;6.472;2023-12-07T12:43:45;21.00;;;14.20;;
52015;SDS011;38032;53.326;6.472;2023-12-07T12:46:12;21.83;;;13.18;;
52015;SDS011;38032;53.326;6.472;2023-12-07T12:48:52;18.42;;;13.23;;
52015;SDS011;38032;53.326;6.472;2023-12-07T12:51:19;20.92;;;13.57;;
52015;SDS011;38032;53.326;6.472;2023-12-07T12:53:46;19.58;;;12.18;;
52015;SDS011;38032;53.326;6.472;2023-12-07T12:56:13;18.15;;;12.77;;
52015;SDS011;38032;53.326;6.472;2023-12-07T12:58:40;18.33;;;12.40;;
52015;SDS011;38032;53.326;6.472;2023-12-07T13:01:05;20.70;;;13.15;;
52015;SDS011;38032;53.326;6.472;2023-12-07T13:03:32;17.42;;;13.30;;
52015;SDS011;38032;53.326;6.472;2023-12-07T13:05:58;21.17;;;12.80;;
52015;SDS011;38032;53.326;6.472;2023-12-07T13:08:24;22.95;;;13.93;;
52015;SDS011;38032;53.326;6.472;2023-12-07T13:10:50;20.08;;;13.77;;
52015;SDS011;38032;53.326;6.472;2023-12-07T13:13:15;21.98;;;14.65;;
52015;SDS011;38032;53.326;6.472;2023-12-07T13:15:41;21.17;;;13.32;;
52015;SDS011;38032;53.326;6.472;2023-12-07T13:18:08;22.10;;;14.45;;
52015;SDS011;38032;53.326;6.472;2023-12-07T13:20:34;22.65;;;14.00;;
52015;SDS011;38032;53.326;6.472;2023-12-07T13:23:00;22.13;;;14.23;;
52015;SDS011;38032;53.326;6.472;2023-12-07T13:25:26;19.45;;;13.57;;
52015;SDS011;38032;53.326;6.472;2023-12-07T13:27:52;24.90;;;15.57;;
52015;SDS011;38032;53.326;6.472;2023-12-07T13:30:18;19.52;;;13.65;;
52015;SDS011;38032;53.326;6.472;2023-12-07T13:32:44;23.42;;;15.13;;
52015;SDS011;38032;53.326;6.472;2023-12-07T13:35:09;21.05;;;13.63;;
52015;SDS011;38032;53.326;6.472;2023-12-07T13:37:35;19.67;;;12.57;;
52015;SDS011;38032;53.326;6.472;2023-12-07T13:40:02;23.48;;;15.52;;
52015;SDS011;38032;53.326;6.472;2023-12-07T13:42:29;22.77;;;15.00;;
52015;SDS011;38032;53.326;6.472;2023-12-07T13:44:56;25.92;;;16.17;;
52015;SDS011;38032;53.326;6.472;2023-12-07T13:47:24;25.25;;;15.63;;
52015;SDS011;38032;53.326;6.472;2023-12-07T13:49:57;27.20;;;16.75;;
52015;SDS011;38032;53.326;6.472;2023-12-07T13:52:24;26.52;;;16.80;;
52015;SDS011;38032;53.326;6.472;2023-12-07T13:54:50;26.98;;;17.15;;
52015;SDS011;38032;53.326;6.472;2023-12-07T13:57:17;26.55;;;17.00;;
52015;SDS011;38032;53.326;6.472;2023-12-07T13:59:44;25.35;;;16.30;;
52015;SDS011;38032;53.326;6.472;2023-12-07T14:02:09;25.90;;;16.10;;
52015;SDS011;38032;53.326;6.472;2023-12-07T14:04:35;31.40;;;15.48;;
52015;SDS011;38032;53.326;6.472;2023-12-07T14:07:08;24.90;;;14.00;;
52015;SDS011;38032;53.326;6.472;2023-12-07T14:09:39;31.45;;;16.25;;
52015;SDS011;38032;53.326;6.472;2023-12-07T14:12:07;23.17;;;14.73;;
52015;SDS011;38032;53.326;6.472;2023-12-07T14:14:39;22.48;;;14.00;;
52015;SDS011;38032;53.326;6.472;2023-12-07T14:17:05;22.90;;;15.68;;
52015;SDS011;38032;53.326;6.472;2023-12-07T14:19:31;22.35;;;14.90;;
52015;SDS011;38032;53.326;6.472;2023-12-07T14:21:58;23.73;;;15.18;;
52015;SDS011;38032;53.326;6.472;2023-12-07T14:24:24;22.85;;;15.05;;
52015;SDS011;38032;53.326;6.472;2023-12-07T14:26:50;27.70;;;16.58;;
52015;SDS011;38032;53.326;6.472;2023-12-07T14:29:16;24.92;;;16.45;;
52015;SDS011;38032;53.326;6.472;2023-12-07T14:31:45;26.73;;;15.95;;